sensor_id;sensor_type;location;lat;lon;timestamp;pressure;altitude;pressure_sealevel;temperature;humidity
60337;BME280;46978;50.288;28.624;2023-02-21T00:00:04;96971.06;;;3.48;100.00
60337;BME280;46978;50.288;28.624;2023-02-21T00:01:06;96960.80;;;3.48;100.00
60337;BME280;46978;50.288;28.624;2023-02-21T00:02:10;96960.84;;;3.47;100.00
60337;BME280;46978;50.288;28.624;2023-02-21T00:03:11;96972.80;;;3.48;100.00
60337;BME280;46978;50.288;28.624;2023-02-21T00:04:13;96961.67;;;3.49;100.00
60337;BME280;46978;50.288;28.624;2023-02-21T00:05:15;96974.48;;;3.49;100.00
60337;BME280;46978;50.288;28.624;2023-02-21T00:06:17;96966.80;;;3.49;100.00
60337;BME280;46978;50.288;28.624;2023-02-21T00:07:20;96947.11;;;3.49;100.00
60337;BME280;46978;50.288;28.624;2023-02-21T00:08:21;96953.98;;;3.49;100.00
60337;BME280;46978;50.288;28.624;2023-02-21T00:09:23;96949.63;;;3.51;100.00
60337;BME280;46978;50.288;28.624;2023-02-21T00:10:25;96941.77;;;3.57;100.00
60337;BME280;46978;50.288;28.624;2023-02-21T00:11:27;96945.84;;;3.64;100.00
60337;BME280;46978;50.288;28.624;2023-02-21T00:12:28;96938.88;;;3.68;100.00
60337;BME280;46978;50.288;28.624;2023-02-21T00:13:30;96928.58;;;3.69;100.00
60337;BME280;46978;50.288;28.624;2023-02-21T00:14:35;96937.92;;;3.72;100.00
60337;BME280;46978;50.288;28.624;2023-02-21T00:15:37;96932.75;;;3.73;100.00
60337;BME280;46978;50.288;28.624;2023-02-21T00:16:38;96925.74;;;3.79;100.00
60337;BME280;46978;50.288;28.624;2023-02-21T00:17:40;96925.69;;;3.80;100.00
60337;BME280;46978;50.288;28.624;2023-02-21T00:18:42;96913.65;;;3.82;100.00
60337;BME280;46978;50.288;28.624;2023-02-21T00:19:43;96928.08;;;3.86;100.00
60337;BME280;46978;50.288;28.624;2023-02-21T00:20:45;96932.23;;;3.90;100.00
60337;BME280;46978;50.288;28.624;2023-02-21T00:21:47;96933.84;;;3.93;100.00
60337;BME280;46978;50.288;28.624;2023-02-21T00:22:49;96938.01;;;3.97;100.00
60337;BME280;46978;50.288;28.624;2023-02-21T00:23:51;96930.27;;;3.99;100.00
60337;BME280;46978;50.288;28.624;2023-02-21T00:24:52;96948.17;;;4.00;100.00
60337;BME280;46978;50.288;28.624;2023-02-21T00:25:54;96946.39;;;4.02;100.00
60337;BME280;46978;50.288;28.624;2023-02-21T00:26:56;96939.52;;;4.03;100.00
60337;BME280;46978;50.288;28.624;2023-02-21T00:27:59;96918.95;;;4.04;100.00
60337;BME280;46978;50.288;28.624;2023-02-21T00:29:01;96925.67;;;4.08;100.00
60337;BME280;46978;50.288;28.624;2023-02-21T00:30:04;96933.38;;;4.08;100.00
60337;BME280;46978;50.288;28.624;2023-02-21T00:31:06;96923.89;;;4.10;100.00
60337;BME280;46978;50.288;28.624;2023-02-21T00:32:07;96935.75;;;4.15;100.00
60337;BME280;46978;50.288;28.624;2023-02-21T00:33:09;96929.69;;;4.17;100.00
60337;BME280;46978;50.288;28.624;2023-02-21T00:34:11;96937.34;;;4.19;100.00
60337;BME280;46978;50.288;28.624;2023-02-21T00:35:12;96950.95;;;4.21;100.00
60337;BME280;46978;50.288;28.624;2023-02-21T00:36:15;96936.37;;;4.21;100.00
60337;BME280;46978;50.288;28.624;2023-02-21T00:37:17;96940.69;;;4.21;100.00
60337;BME280;46978;50.288;28.624;2023-02-21T00:38:19;96947.51;;;4.22;100.00
60337;BME280;46978;50.288;28.624;2023-02-21T00:39:21;96942.38;;;4.22;100.00
60337;BME280;46978;50.288;28.624;2023-02-21T00:40:22;96940.59;;;4.24;100.00
60337;BME280;46978;50.288;28.624;2023-02-21T00:41:24;96940.59;;;4.24;100.00
60337;BME280;46978;50.288;28.624;2023-02-21T00:42:26;96937.92;;;4.27;100.00
60337;BME280;46978;50.288;28.624;2023-02-21T00:43:29;96944.80;;;4.26;100.00
60337;BME280;46978;50.288;28.624;2023-02-21T00:44:31;96958.46;;;4.27;100.00
60337;BME280;46978;50.288;28.624;2023-02-21T00:45:33;96952.50;;;4.26;100.00
60337;BME280;46978;50.288;28.624;2023-02-21T00:46:34;96961.86;;;4.27;100.00
60337;BME280;46978;50.288;28.624;2023-02-21T00:47:36;96949.83;;;4.29;100.00
60337;BME280;46978;50.288;28.624;2023-02-21T00:48:38;96948.14;;;4.28;100.00
60337;BME280;46978;50.288;28.624;2023-02-21T00:49:39;96955.02;;;4.28;100.00
60337;BME280;46978;50.288;28.624;2023-02-21T00:50:41;96966.98;;;4.27;100.00
60337;BME280;46978;50.288;28.624;2023-02-21T00:51:43;96950.76;;;4.27;100.00
60337;BME280;46978;50.288;28.624;2023-02-21T00:52:45;96955.89;;;4.27;100.00
60337;BME280;46978;50.288;28.624;2023-02-21T00:53:46;96973.08;;;4.25;100.00
60337;BME280;46978;50.288;28.624;2023-02-21T00:54:48;96990.19;;;4.24;100.00
60337;BME280;46978;50.288;28.624;2023-02-21T00:55:50;96999.63;;;4.24;100.00
60337;BME280;46978;50.288;28.624;2023-02-21T00:56:51;96994.59;;;4.21;100.00
60337;BME280;46978;50.288;28.624;2023-02-21T00:57:53;96979.33;;;4.16;100.00
60337;BME280;46978;50.288;28.624;2023-02-21T00:58:55;96985.48;;;4.10;100.00
60337;BME280;46978;50.288;28.624;2023-02-21T00:59:56;96972.74;;;4.07;100.00
60337;BME280;46978;50.288;28.624;2023-02-21T01:00:58;96990.80;;;4.04;100.00
60337;BME280;46978;50.288;28.624;2023-02-21T01:02:00;96978.92;;;4.02;100.00
60337;BME280;46978;50.288;28.624;2023-02-21T01:03:02;96980.72;;;3.98;100.00
60337;BME280;46978;50.288;28.624;2023-02-21T01:04:03;96982.50;;;3.96;100.00
60337;BME280;46978;50.288;28.624;2023-02-21T01:05:06;96999.67;;;3.94;100.00
60337;BME280;46978;50.288;28.624;2023-02-21T01:06:09;96992.08;;;3.91;100.00
60337;BME280;46978;50.288;28.624;2023-02-21T01:07:11;96968.89;;;3.94;100.00
60337;BME280;46978;50.288;28.624;2023-02-21T01:08:13;96991.20;;;3.92;100.00
60337;BME280;46978;50.288;28.624;2023-02-21T01:09:15;96982.64;;;3.91;100.00
60337;BME280;46978;50.288;28.624;2023-02-21T01:10:18;96972.47;;;3.88;100.00
60337;BME280;46978;50.288;28.624;2023-02-21T01:11:21;96983.69;;;3.86;100.00
60337;BME280;46978;50.288;28.624;2023-02-21T01:12:23;96986.34;;;3.83;100.00
60337;BME280;46978;50.288;28.624;2023-02-21T01:13:24;96972.70;;;3.81;100.00
60337;BME280;46978;50.288;28.624;2023-02-21T01:14:26;96976.22;;;3.78;100.00
60337;BME280;46978;50.288;28.624;2023-02-21T01:15:27;96982.27;;;3.75;100.00
60337;BME280;46978;50.288;28.624;2023-02-21T01:16:30;96986.61;;;3.73;99.64
60337;BME280;46978;50.288;28.624;2023-02-21T01:17:32;96990.09;;;3.71;98.44
60337;BME280;46978;50.288;28.624;2023-02-21T01:18:34;96981.61;;;3.69;98.15
60337;BME280;46978;50.288;28.624;2023-02-21T01:19:36;96984.13;;;3.70;98.29
60337;BME280;46978;50.288;28.624;2023-02-21T01:20:39;96978.19;;;3.68;97.99
60337;BME280;46978;50.288;28.624;2023-02-21T01:21:41;96983.41;;;3.65;97.94
60337;BME280;46978;50.288;28.624;2023-02-21T01:22:42;96987.70;;;3.65;98.39
60337;BME280;46978;50.288;28.624;2023-02-21T01:23:44;96982.66;;;3.62;98.61
60337;BME280;46978;50.288;28.624;2023-02-21T01:24:48;96993.00;;;3.58;98.56
60337;BME280;46978;50.288;28.624;2023-02-21T01:25:50;96993.97;;;3.54;98.15
60337;BME280;46978;50.288;28.624;2023-02-21T01:26:51;96999.09;;;3.54;98.58
60337;BME280;46978;50.288;28.624;2023-02-21T01:27:54;96994.01;;;3.53;99.14
60337;BME280;46978;50.288;28.624;2023-02-21T01:28:56;96990.66;;;3.51;99.24
60337;BME280;46978;50.288;28.624;2023-02-21T01:29:58;96995.00;;;3.49;99.32
60337;BME280;46978;50.288;28.624;2023-02-21T01:30:59;97002.73;;;3.47;99.17
60337;BME280;46978;50.288;28.624;2023-02-21T01:32:01;97003.56;;;3.48;99.32
60337;BME280;46978;50.288;28.624;2023-02-21T01:33:03;97012.98;;;3.47;99.86
60337;BME280;46978;50.288;28.624;2023-02-21T01:34:05;97008.73;;;3.46;99.38
60337;BME280;46978;50.288;28.624;2023-02-21T01:35:07;97007.00;;;3.47;99.13
60337;BME280;46978;50.288;28.624;2023-02-21T01:36:09;97017.25;;;3.47;99.82
60337;BME280;46978;50.288;28.624;2023-02-21T01:37:11;97016.47;;;3.45;100.00
60337;BME280;46978;50.288;28.624;2023-02-21T01:38:13;97021.63;;;3.43;100.00
60337;BME280;46978;50.288;28.624;2023-02-21T01:39:14;97003.69;;;3.43;100.00
60337;BME280;46978;50.288;28.624;2023-02-21T01:40:18;97031.93;;;3.41;100.00
60337;BME280;46978;50.288;28.624;2023-02-21T01:41:20;97011.42;;;3.41;99.75
60337;BME280;46978;50.288;28.624;2023-02-21T01:42:22;97020.84;;;3.41;99.87
60337;BME280;46978;50.288;28.624;2023-02-21T01:43:25;97008.91;;;3.40;99.60
60337;BME280;46978;50.288;28.624;2023-02-21T01:44:37;97005.47;;;3.41;99.81
60337;BME280;46978;50.288;28.624;2023-02-21T01:45:50;97000.42;;;3.38;99.94
60337;BME280;46978;50.288;28.624;2023-02-21T01:46:44;97020.03;;;3.39;99.91
60337;BME280;46978;50.288;28.624;2023-02-21T01:47:46;97019.20;;;3.38;99.52
60337;BME280;46978;50.288;28.624;2023-02-21T01:48:48;97020.06;;;3.37;99.87
60337;BME280;46978;50.288;28.624;2023-02-21T01:49:51;97019.23;;;3.37;99.35
60337;BME280;46978;50.288;28.624;2023-02-21T01:50:53;97011.55;;;3.37;98.64
60337;BME280;46978;50.288;28.624;2023-02-21T01:51:57;97008.11;;;3.38;98.53
60337;BME280;46978;50.288;28.624;2023-02-21T01:53:02;97016.63;;;3.38;98.74
60337;BME280;46978;50.288;28.624;2023-02-21T01:54:06;97031.23;;;3.36;99.21
60337;BME280;46978;50.288;28.624;2023-02-21T01:55:09;97024.45;;;3.34;99.52
60337;BME280;46978;50.288;28.624;2023-02-21T01:56:12;97017.71;;;3.30;99.54
60337;BME280;46978;50.288;28.624;2023-02-21T01:57:14;97014.36;;;3.28;99.35
60337;BME280;46978;50.288;28.624;2023-02-21T01:58:19;97034.07;;;3.26;99.24
60337;BME280;46978;50.288;28.624;2023-02-21T01:59:22;97011.88;;;3.25;99.04
60337;BME280;46978;50.288;28.624;2023-02-21T02:00:25;97015.39;;;3.20;99.23
60337;BME280;46978;50.288;28.624;2023-02-21T02:01:32;97022.33;;;3.17;99.45
60337;BME280;46978;50.288;28.624;2023-02-21T02:02:47;97023.32;;;3.11;99.79
60337;BME280;46978;50.288;28.624;2023-02-21T02:03:46;97024.30;;;3.07;100.00
60337;BME280;46978;50.288;28.624;2023-02-21T02:04:50;97008.23;;;3.00;100.00
60337;BME280;46978;50.288;28.624;2023-02-21T02:05:55;97012.67;;;2.94;100.00
60337;BME280;46978;50.288;28.624;2023-02-21T02:06:57;97014.52;;;2.89;100.00
60337;BME280;46978;50.288;28.624;2023-02-21T02:07:59;97011.22;;;2.83;100.00
60337;BME280;46978;50.288;28.624;2023-02-21T02:09:20;97010.42;;;2.81;100.00
60337;BME280;46978;50.288;28.624;2023-02-21T02:10:23;97016.38;;;2.82;100.00
60337;BME280;46978;50.288;28.624;2023-02-21T02:16:32;97015.77;;;2.72;100.00
60337;BME280;46978;50.288;28.624;2023-02-21T02:18:59;97022.73;;;2.67;100.00
60337;BME280;46978;50.288;28.624;2023-02-21T02:24:21;97012.76;;;2.56;100.00
60337;BME280;46978;50.288;28.624;2023-02-21T02:27:10;97027.39;;;2.51;100.00
60337;BME280;46978;50.288;28.624;2023-02-21T02:28:22;97018.92;;;2.47;100.00
60337;BME280;46978;50.288;28.624;2023-02-21T02:32:45;97026.64;;;2.46;100.00
60337;BME280;46978;50.288;28.624;2023-02-21T02:36:45;97027.64;;;2.40;100.00
60337;BME280;46978;50.288;28.624;2023-02-21T02:41:42;97034.56;;;2.35;100.00
60337;BME280;46978;50.288;28.624;2023-02-21T02:44:18;97034.56;;;2.35;100.00
60337;BME280;46978;50.288;28.624;2023-02-21T02:45:10;97028.62;;;2.35;100.00
60337;BME280;46978;50.288;28.624;2023-02-21T02:46:23;97037.16;;;2.33;100.00
60337;BME280;46978;50.288;28.624;2023-02-21T02:47:30;97038.02;;;2.34;100.00
60337;BME280;46978;50.288;28.624;2023-02-21T02:48:41;97035.50;;;2.32;100.00
60337;BME280;46978;50.288;28.624;2023-02-21T02:49:44;97038.92;;;2.31;100.00
60337;BME280;46978;50.288;28.624;2023-02-21T02:50:48;97042.28;;;2.33;100.00
60337;BME280;46978;50.288;28.624;2023-02-21T02:51:51;97039.75;;;2.32;100.00
60337;BME280;46978;50.288;28.624;2023-02-21T02:52:55;97043.17;;;2.32;100.00
60337;BME280;46978;50.288;28.624;2023-02-21T02:53:58;97041.41;;;2.35;100.00
60337;BME280;46978;50.288;28.624;2023-02-21T02:55:03;97043.17;;;2.32;100.00
60337;BME280;46978;50.288;28.624;2023-02-21T02:56:07;97042.28;;;2.33;100.00
60337;BME280;46978;50.288;28.624;2023-02-21T02:57:10;97038.89;;;2.33;100.00
60337;BME280;46978;50.288;28.624;2023-02-21T02:58:12;97048.26;;;2.34;100.00
60337;BME280;46978;50.288;28.624;2023-02-21T02:59:18;97036.30;;;2.35;100.00
60337;BME280;46978;50.288;28.624;2023-02-21T03:00:20;97033.77;;;2.33;100.00
60337;BME280;46978;50.288;28.624;2023-02-21T03:03:06;97043.94;;;2.36;100.00
60337;BME280;46978;50.288;28.624;2023-02-21T03:04:30;97038.89;;;2.33;100.00
60337;BME280;46978;50.288;28.624;2023-02-21T03:08:30;97043.11;;;2.36;100.00
60337;BME280;46978;50.288;28.624;2023-02-21T03:10:20;97046.42;;;2.39;100.00
60337;BME280;46978;50.288;28.624;2023-02-21T03:10:53;97051.48;;;2.42;100.00
60337;BME280;46978;50.288;28.624;2023-02-21T03:14:46;97048.59;;;2.56;100.00
60337;BME280;46978;50.288;28.624;2023-02-21T03:15:58;97045.89;;;2.62;100.00
60337;BME280;46978;50.288;28.624;2023-02-21T03:17:05;97048.38;;;2.65;100.00
60337;BME280;46978;50.288;28.624;2023-02-21T03:18:17;97057.61;;;2.71;100.00
60337;BME280;46978;50.288;28.624;2023-02-21T03:19:25;97062.59;;;2.77;100.00
60337;BME280;46978;50.288;28.624;2023-02-21T03:20:28;97059.91;;;2.82;100.00
60337;BME280;46978;50.288;28.624;2023-02-21T03:21:50;97072.65;;;2.85;100.00
60337;BME280;46978;50.288;28.624;2023-02-21T03:22:54;97065.79;;;2.87;100.00
60337;BME280;46978;50.288;28.624;2023-02-21T03:23:59;97059.77;;;2.88;100.00
60337;BME280;46978;50.288;28.624;2023-02-21T03:25:03;97058.98;;;2.86;100.00
60337;BME280;46978;50.288;28.624;2023-02-21T03:26:07;97058.11;;;2.87;100.00
60337;BME280;46978;50.288;28.624;2023-02-21T03:27:10;97058.06;;;2.89;100.00
60337;BME280;46978;50.288;28.624;2023-02-21T03:28:13;97043.45;;;2.92;100.00
60337;BME280;46978;50.288;28.624;2023-02-21T03:29:16;97059.58;;;2.96;100.00
60337;BME280;46978;50.288;28.624;2023-02-21T03:30:20;97059.54;;;2.97;100.00
60337;BME280;46978;50.288;28.624;2023-02-21T03:31:25;97051.86;;;2.97;100.00
60337;BME280;46978;50.288;28.624;2023-02-21T03:32:39;97056.98;;;2.97;100.00
60337;BME280;46978;50.288;28.624;2023-02-21T03:33:42;97053.55;;;2.98;100.00
60337;BME280;46978;50.288;28.624;2023-02-21T03:34:44;97058.67;;;2.98;100.00
60337;BME280;46978;50.288;28.624;2023-02-21T03:35:46;97064.63;;;2.99;100.00
60337;BME280;46978;50.288;28.624;2023-02-21T03:36:48;97056.91;;;3.00;100.00
60337;BME280;46978;50.288;28.624;2023-02-21T03:37:52;97050.91;;;3.01;100.00
60337;BME280;46978;50.288;28.624;2023-02-21T03:38:53;97051.66;;;3.05;100.00
60337;BME280;46978;50.288;28.624;2023-02-21T03:39:55;97060.97;;;3.09;100.00
60337;BME280;46978;50.288;28.624;2023-02-21T03:40:57;97054.07;;;3.11;100.00
60337;BME280;46978;50.288;28.624;2023-02-21T03:41:59;97065.97;;;3.14;100.00
60337;BME280;46978;50.288;28.624;2023-02-21T03:43:03;97056.55;;;3.14;100.00
60337;BME280;46978;50.288;28.624;2023-02-21T03:44:05;97065.06;;;3.16;100.00
60337;BME280;46978;50.288;28.624;2023-02-21T03:45:07;97064.95;;;3.21;100.00
60337;BME280;46978;50.288;28.624;2023-02-21T03:46:09;97064.95;;;3.21;100.00
60337;BME280;46978;50.288;28.624;2023-02-21T03:47:11;97063.25;;;3.20;100.00
60337;BME280;46978;50.288;28.624;2023-02-21T03:48:13;97057.26;;;3.21;100.00
60337;BME280;46978;50.288;28.624;2023-02-21T03:49:14;97070.07;;;3.21;100.00
60337;BME280;46978;50.288;28.624;2023-02-21T03:50:18;97072.56;;;3.24;100.00
60337;BME280;46978;50.288;28.624;2023-02-21T03:51:20;97069.91;;;3.27;100.00
60337;BME280;46978;50.288;28.624;2023-02-21T03:52:22;97072.48;;;3.27;100.00
60337;BME280;46978;50.288;28.624;2023-02-21T03:53:23;97071.58;;;3.28;100.00
60337;BME280;46978;50.288;28.624;2023-02-21T03:54:25;97063.02;;;3.29;100.00
60337;BME280;46978;50.288;28.624;2023-02-21T03:55:27;97069.91;;;3.27;100.00
60337;BME280;46978;50.288;28.624;2023-02-21T03:56:28;97074.96;;;3.30;100.00
60337;BME280;46978;50.288;28.624;2023-02-21T03:57:30;97069.84;;;3.30;99.99
60337;BME280;46978;50.288;28.624;2023-02-21T03:58:32;97072.36;;;3.32;98.78
60337;BME280;46978;50.288;28.624;2023-02-21T03:59:34;97085.14;;;3.33;98.84
60337;BME280;46978;50.288;28.624;2023-02-21T04:00:35;97080.84;;;3.34;98.68
60337;BME280;46978;50.288;28.624;2023-02-21T04:01:37;97085.97;;;3.34;98.38
60337;BME280;46978;50.288;28.624;2023-02-21T04:02:39;97077.45;;;3.33;98.00
60337;BME280;46978;50.288;28.624;2023-02-21T04:03:41;97080.84;;;3.34;97.77
60337;BME280;46978;50.288;28.624;2023-02-21T04:04:42;97073.19;;;3.32;96.91
60337;BME280;46978;50.288;28.624;2023-02-21T04:05:44;97078.31;;;3.32;96.25
60337;BME280;46978;50.288;28.624;2023-02-21T04:06:46;97086.05;;;3.31;96.04
60337;BME280;46978;50.288;28.624;2023-02-21T04:07:47;97080.09;;;3.30;95.84
60337;BME280;46978;50.288;28.624;2023-02-21T04:08:49;97082.73;;;3.27;95.28
60337;BME280;46978;50.288;28.624;2023-02-21T04:09:51;97085.30;;;3.27;95.21
60337;BME280;46978;50.288;28.624;2023-02-21T04:10:52;97079.30;;;3.27;95.17
60337;BME280;46978;50.288;28.624;2023-02-21T04:11:54;97086.16;;;3.26;95.41
60337;BME280;46978;50.288;28.624;2023-02-21T04:12:56;97076.03;;;3.21;94.90
60337;BME280;46978;50.288;28.624;2023-02-21T04:13:57;97082.02;;;3.20;95.02
60337;BME280;46978;50.288;28.624;2023-02-21T04:14:59;97076.14;;;3.17;94.77
60337;BME280;46978;50.288;28.624;2023-02-21T04:16:01;97081.34;;;3.14;94.87
60337;BME280;46978;50.288;28.624;2023-02-21T04:17:02;97083.16;;;3.10;94.83
60337;BME280;46978;50.288;28.624;2023-02-21T04:18:04;97084.93;;;3.07;95.12
60337;BME280;46978;50.288;28.624;2023-02-21T04:19:06;97084.17;;;3.03;95.28
60337;BME280;46978;50.288;28.624;2023-02-21T04:20:09;97086.89;;;2.97;95.46
60337;BME280;46978;50.288;28.624;2023-02-21T04:21:16;97091.33;;;2.90;95.54
60337;BME280;46978;50.288;28.624;2023-02-21T04:22:17;97082.89;;;2.85;95.91
60337;BME280;46978;50.288;28.624;2023-02-21T04:23:20;97077.16;;;2.75;96.43
60337;BME280;46978;50.288;28.624;2023-02-21T04:24:22;97077.16;;;2.75;96.43
60337;BME280;46978;50.288;28.624;2023-02-21T04:25:24;97095.16;;;2.72;96.61
60337;BME280;46978;50.288;28.624;2023-02-21T04:26:25;97091.80;;;2.70;96.71
60337;BME280;46978;50.288;28.624;2023-02-21T04:27:27;97082.50;;;2.66;96.89
60337;BME280;46978;50.288;28.624;2023-02-21T04:28:32;97087.66;;;2.64;97.06
60337;BME280;46978;50.288;28.624;2023-02-21T04:29:33;97086.06;;;2.60;97.15
60337;BME280;46978;50.288;28.624;2023-02-21T04:30:35;97082.64;;;2.60;97.31
60337;BME280;46978;50.288;28.624;2023-02-21T04:31:37;97086.92;;;2.59;97.34
60337;BME280;46978;50.288;28.624;2023-02-21T04:32:39;97090.31;;;2.60;97.39
60337;BME280;46978;50.288;28.624;2023-02-21T04:33:41;97086.89;;;2.61;97.21
60337;BME280;46978;50.288;28.624;2023-02-21T04:34:44;97098.83;;;2.62;97.06
60337;BME280;46978;50.288;28.624;2023-02-21T04:35:45;97090.21;;;2.64;96.90
60337;BME280;46978;50.288;28.624;2023-02-21T04:36:47;97092.73;;;2.66;96.87
60337;BME280;46978;50.288;28.624;2023-02-21T04:37:49;97098.62;;;2.69;96.60
60337;BME280;46978;50.288;28.624;2023-02-21T04:38:51;97102.01;;;2.72;96.61
60337;BME280;46978;50.288;28.624;2023-02-21T04:39:53;97102.84;;;2.72;96.72
60337;BME280;46978;50.288;28.624;2023-02-21T04:40:55;97091.80;;;2.70;96.59
60337;BME280;46978;50.288;28.624;2023-02-21T04:41:56;97094.33;;;2.72;96.44
60337;BME280;46978;50.288;28.624;2023-02-21T04:42:58;97087.48;;;2.72;96.28
60337;BME280;46978;50.288;28.624;2023-02-21T04:44:00;97089.17;;;2.73;96.05
60337;BME280;46978;50.288;28.624;2023-02-21T04:45:02;97081.45;;;2.75;95.46
60337;BME280;46978;50.288;28.624;2023-02-21T04:46:04;97077.13;;;2.77;95.20
60337;BME280;46978;50.288;28.624;2023-02-21T04:47:06;97077.13;;;2.77;95.20
60337;BME280;46978;50.288;28.624;2023-02-21T04:48:07;97086.47;;;2.79;95.06
60337;BME280;46978;50.288;28.624;2023-02-21T04:49:11;97088.16;;;2.79;94.76
60337;BME280;46978;50.288;28.624;2023-02-21T04:50:13;97087.30;;;2.80;94.49
60337;BME280;46978;50.288;28.624;2023-02-21T04:51:18;97092.45;;;2.78;94.26
60337;BME280;46978;50.288;28.624;2023-02-21T04:52:19;97086.53;;;2.76;94.44
60337;BME280;46978;50.288;28.624;2023-02-21T04:53:21;97082.32;;;2.74;94.11
60337;BME280;46978;50.288;28.624;2023-02-21T04:54:23;97068.76;;;2.70;94.27
60337;BME280;46978;50.288;28.624;2023-02-21T04:55:25;97073.91;;;2.68;94.14
60337;BME280;46978;50.288;28.624;2023-02-21T04:56:28;97076.55;;;2.65;94.21
60337;BME280;46978;50.288;28.624;2023-02-21T04:57:30;97080.01;;;2.63;94.10
60337;BME280;46978;50.288;28.624;2023-02-21T04:58:32;97076.65;;;2.61;94.10
60337;BME280;46978;50.288;28.624;2023-02-21T04:59:33;97086.13;;;2.57;94.32
60337;BME280;46978;50.288;28.624;2023-02-21T05:00:35;97080.22;;;2.54;94.21
60337;BME280;46978;50.288;28.624;2023-02-21T05:01:37;97081.12;;;2.53;94.10
60337;BME280;46978;50.288;28.624;2023-02-21T05:02:43;97072.64;;;2.49;94.07
60337;BME280;46978;50.288;28.624;2023-02-21T05:03:45;97076.17;;;2.45;94.09
60337;BME280;46978;50.288;28.624;2023-02-21T05:04:47;97075.41;;;2.40;94.30
60337;BME280;46978;50.288;28.624;2023-02-21T05:05:50;97077.17;;;2.38;94.36
60337;BME280;46978;50.288;28.624;2023-02-21T05:06:52;97081.49;;;2.36;94.51
60337;BME280;46978;50.288;28.624;2023-02-21T05:07:54;97080.77;;;2.29;94.57
60337;BME280;46978;50.288;28.624;2023-02-21T05:08:57;97085.98;;;2.24;94.79
60337;BME280;46978;50.288;28.624;2023-02-21T05:09:59;97093.72;;;2.21;95.10
60337;BME280;46978;50.288;28.624;2023-02-21T05:11:01;97098.11;;;2.16;95.27
60337;BME280;46978;50.288;28.624;2023-02-21T05:12:03;97092.98;;;2.16;95.45
60337;BME280;46978;50.288;28.624;2023-02-21T05:13:04;97097.28;;;2.15;95.44
60337;BME280;46978;50.288;28.624;2023-02-21T05:14:06;97092.16;;;2.15;95.59
60337;BME280;46978;50.288;28.624;2023-02-21T05:15:09;97094.72;;;2.15;95.55
60337;BME280;46978;50.288;28.624;2023-02-21T05:16:12;97087.08;;;2.14;95.64
60337;BME280;46978;50.288;28.624;2023-02-21T05:17:14;97087.08;;;2.14;95.99
60337;BME280;46978;50.288;28.624;2023-02-21T05:18:17;97081.06;;;2.15;95.83
60337;BME280;46978;50.288;28.624;2023-02-21T05:19:20;97081.92;;;2.15;95.89
60337;BME280;46978;50.288;28.624;2023-02-21T05:20:22;97084.48;;;2.15;95.90
60337;BME280;46978;50.288;28.624;2023-02-21T05:21:24;97089.59;;;2.15;96.07
60337;BME280;46978;50.288;28.624;2023-02-21T05:22:26;97087.05;;;2.15;96.13
60337;BME280;46978;50.288;28.624;2023-02-21T05:23:28;97072.52;;;2.16;96.00
60337;BME280;46978;50.288;28.624;2023-02-21T05:24:30;97073.39;;;2.15;96.04
60337;BME280;46978;50.288;28.624;2023-02-21T05:25:31;97080.23;;;2.14;96.17
60337;BME280;46978;50.288;28.624;2023-02-21T05:26:36;97081.99;;;2.12;96.25
60337;BME280;46978;50.288;28.624;2023-02-21T05:29:02;97085.38;;;2.13;96.31
60337;BME280;46978;50.288;28.624;2023-02-21T05:30:05;97073.45;;;2.12;96.43
60337;BME280;46978;50.288;28.624;2023-02-21T05:31:07;97072.52;;;2.16;96.18
60337;BME280;46978;50.288;28.624;2023-02-21T05:32:08;97074.95;;;2.22;95.93
60337;BME280;46978;50.288;28.624;2023-02-21T05:33:10;97081.77;;;2.23;95.81
60337;BME280;46978;50.288;28.624;2023-02-21T05:34:13;97086.81;;;2.26;95.73
60337;BME280;46978;50.288;28.624;2023-02-21T05:35:16;97085.88;;;2.29;95.55
60337;BME280;46978;50.288;28.624;2023-02-21T05:36:18;97084.98;;;2.31;95.37
60337;BME280;46978;50.288;28.624;2023-02-21T05:37:20;97090.07;;;2.33;95.30
60337;BME280;46978;50.288;28.624;2023-02-21T05:38:23;97084.95;;;2.33;95.03
60337;BME280;46978;50.288;28.624;2023-02-21T05:39:24;97078.94;;;2.36;94.57
60337;BME280;46978;50.288;28.624;2023-02-21T05:40:26;97078.87;;;2.39;94.22
60337;BME280;46978;50.288;28.624;2023-02-21T05:41:28;97080.50;;;2.41;94.10
60337;BME280;46978;50.288;28.624;2023-02-21T05:42:30;97077.03;;;2.44;93.89
60337;BME280;46978;50.288;28.624;2023-02-21T05:43:32;97082.92;;;2.47;93.72
60337;BME280;46978;50.288;28.624;2023-02-21T05:44:34;97076.03;;;2.51;93.68
60337;BME280;46978;50.288;28.624;2023-02-21T05:45:35;97081.95;;;2.53;93.55
60337;BME280;46978;50.288;28.624;2023-02-21T05:46:37;97090.42;;;2.55;93.57
60337;BME280;46978;50.288;28.624;2023-02-21T05:47:39;97074.99;;;2.58;93.36
60337;BME280;46978;50.288;28.624;2023-02-21T05:48:40;97090.25;;;2.63;93.33
60337;BME280;46978;50.288;28.624;2023-02-21T05:49:42;97081.70;;;2.64;93.45
60337;BME280;46978;50.288;28.624;2023-02-21T05:50:44;97091.05;;;2.65;93.36
60337;BME280;46978;50.288;28.624;2023-02-21T05:51:46;97089.34;;;2.65;93.28
60337;BME280;46978;50.288;28.624;2023-02-21T05:52:47;97093.57;;;2.66;93.26
60337;BME280;46978;50.288;28.624;2023-02-21T05:53:49;97089.24;;;2.70;93.15
60337;BME280;46978;50.288;28.624;2023-02-21T05:54:51;97090.83;;;2.74;93.20
60337;BME280;46978;50.288;28.624;2023-02-21T05:55:53;97088.16;;;2.79;93.13
60337;BME280;46978;50.288;28.624;2023-02-21T05:56:55;97092.34;;;2.83;93.06
60337;BME280;46978;50.288;28.624;2023-02-21T05:57:56;97093.89;;;2.90;92.95
60337;BME280;46978;50.288;28.624;2023-02-21T05:58:58;97092.05;;;2.95;92.70
60337;BME280;46978;50.288;28.624;2023-02-21T06:00:00;97094.54;;;2.98;92.43
60337;BME280;46978;50.288;28.624;2023-02-21T06:01:01;97091.03;;;3.02;92.46
60337;BME280;46978;50.288;28.624;2023-02-21T06:02:03;97093.52;;;3.05;91.86
60337;BME280;46978;50.288;28.624;2023-02-21T06:03:05;97087.38;;;3.11;91.72